Time;durP1;ratioP1;P1;durP2;ratioP2;P2;SDS_P1;SDS_P2;PMS_P1;PMS_P2;Temp;Humidity;BMP_temperature;BMP_pressure;BME280_temperature;BME280_humidity;BME280_pressure;Samples;Min_cycle;Max_cycle;Signal;HPM_P1;HPM_P2
2022/06/10 00:01:10;;;;;;;4.22;2.40;;;;;;;14.79;100.00;96824.28;5018104;28;20089;-53
2022/06/10 00:03:41;;;;;;;3.45;2.08;;;;;;;14.77;100.00;96840.41;5026022;28;20467;-48
2022/06/10 00:06:10;;;;;;;5.15;1.90;;;;;;;14.57;100.00;96834.53;5026820;28;20069;-49
2022/06/10 00:08:41;;;;;;;6.07;2.40;;;;;;;14.62;100.00;96839.34;5027231;28;20074;-55
2022/06/10 00:11:11;;;;;;;3.63;2.30;;;;;;;14.70;100.00;96832.25;5019679;28;20107;-48
2022/06/10 00:13:41;;;;;;;5.00;2.47;;;;;;;14.64;100.00;96835.53;5025385;28;20096;-52
2022/06/10 00:16:13;;;;;;;3.05;2.05;;;;;;;14.59;100.00;96837.84;5027620;28;20081;-51
2022/06/10 00:18:43;;;;;;;2.97;2.17;;;;;;;14.71;100.00;96839.22;5021032;28;20073;-54
2022/06/10 00:21:14;;;;;;;5.10;2.65;;;;;;;14.61;100.00;96841.16;5027325;28;20439;-54
2022/06/10 00:23:43;;;;;;;3.25;2.17;;;;;;;14.70;100.00;96840.22;5027373;28;20538;-47
2022/06/10 00:26:13;;;;;;;4.18;2.30;;;;;;;14.71;100.00;96841.03;5022464;28;20076;-46
2022/06/10 00:28:43;;;;;;;7.32;2.53;;;;;;;14.71;100.00;96841.03;5022092;28;20491;-55
2022/06/10 00:31:11;;;;;;;;;;;;;;;14.65;100.00;96833.72;5027802;28;20089;-49
2022/06/10 00:33:40;;;;;;;3.95;2.60;;;;;;;14.85;100.00;96843.06;5027204;28;19960;-51
2022/06/10 00:36:11;;;;;;;3.55;2.10;;;;;;;14.49;100.00;96848.56;5022967;28;20092;-49
2022/06/10 00:38:39;;;;;;;;;;;;;;;14.78;100.00;96851.84;5017981;28;20071;-45
2022/06/10 00:41:08;;;;;;;6.78;2.30;;;;;;;14.56;100.00;96845.31;5027647;28;19983;-54
2022/06/10 00:43:37;;;;;;;8.23;2.40;;;;;;;14.72;100.00;96845.34;5020252;28;21869;-48
2022/06/10 00:46:20;;;;;;;3.83;2.25;;;;;;;14.54;100.00;96848.09;5025105;28;20077;-48
2022/06/10 00:48:51;;;;;;;3.63;2.20;;;;;;;14.70;100.00;96855.31;5023645;28;20522;-53
2022/06/10 00:51:22;;;;;;;;;;;;;;;14.54;100.00;96853.41;5018497;28;20061;-53
2022/06/10 00:53:50;;;;;;;;;;;;;;;14.61;100.00;96848.31;5021881;28;20611;-52
2022/06/10 00:56:23;;;;;;;4.00;2.38;;;;;;;14.41;100.00;96850.34;5018695;28;19980;-47
2022/06/10 00:58:54;;;;;;;5.38;2.40;;;;;;;14.36;100.00;96845.50;5024578;28;20496;-45
2022/06/10 01:01:24;;;;;;;5.45;2.20;;;;;;;14.45;100.00;96849.88;5022832;28;20083;-54
2022/06/10 01:03:54;;;;;;;4.30;2.22;;;;;;;14.48;100.00;96854.84;5022685;28;20080;-52
2022/06/10 01:06:24;;;;;;;3.73;2.20;;;;;;;14.61;100.00;96845.66;5023787;28;20079;-52
2022/06/10 01:08:52;;;;;;;;;;;;;;;14.38;100.00;96848.84;5023267;28;20087;-50
2022/06/10 01:11:37;;;;;;;4.07;2.20;;;;;;;14.54;100.00;96856.06;5021500;28;19944;-51
2022/06/10 01:14:15;;;;;;;3.70;2.00;;;;;;;14.25;100.00;96859.06;5019139;28;20471;-53
2022/06/10 01:16:50;;;;;;;5.45;2.35;;;;;;;14.41;100.00;96858.28;5025346;28;20068;-55
2022/06/10 01:19:36;;;;;;;6.47;2.50;;;;;;;14.39;100.00;96858.47;5017575;28;20085;-55
2022/06/10 01:22:24;;;;;;;6.70;2.40;;;;;;;14.49;100.00;96856.53;5023325;28;20276;-53
2022/06/10 01:25:16;;;;;;;3.72;2.22;;;;;;;14.24;100.00;96855.56;5024999;28;20907;-53
2022/06/10 01:28:14;;;;;;;4.30;2.20;;;;;;;14.41;100.00;96853.81;5023613;28;20056;-49
2022/06/10 01:31:12;;;;;;;5.47;2.38;;;;;;;14.39;100.00;96860.28;5015102;28;20095;-47
2022/06/10 01:34:05;;;;;;;3.03;2.10;;;;;;;14.34;100.00;96867.88;5024353;28;20076;-55
2022/06/10 01:36:41;;;;;;;2.97;2.20;;;;;;;14.10;100.00;96860.63;5022481;28;20065;-48
2022/06/10 01:39:15;;;;;;;6.70;2.50;;;;;;;14.35;100.00;96864.22;5024281;28;20065;-52
2022/06/10 01:41:50;;;;;;;5.32;2.30;;;;;;;14.32;100.00;96865.41;5023542;28;20070;-50
2022/06/10 01:44:34;;;;;;;4.63;2.75;;;;;;;14.33;100.00;96869.72;5023776;28;20084;-47
2022/06/10 01:47:06;;;;;;;3.85;2.05;;;;;;;14.30;100.00;96877.16;5019323;28;20070;-50
2022/06/10 01:49:37;;;;;;;8.43;2.33;;;;;;;14.37;100.00;96880.84;5023161;28;20441;-48
2022/06/10 01:52:10;;;;;;;3.60;2.33;;;;;;;14.34;100.00;96887.28;5020677;28;20057;-51
2022/06/10 01:54:42;;;;;;;4.30;2.42;;;;;;;14.25;100.00;96882.94;5021885;28;20507;-51
2022/06/10 01:57:14;;;;;;;10.27;3.20;;;;;;;14.28;100.00;96895.03;5021381;28;20512;-55
2022/06/10 01:59:45;;;;;;;5.20;2.20;;;;;;;14.43;100.00;96891.66;5025047;28;20073;-53
2022/06/10 02:02:17;;;;;;;3.97;2.17;;;;;;;14.29;100.00;96894.06;5025066;28;20064;-46
2022/06/10 02:04:49;;;;;;;3.88;2.15;;;;;;;14.12;100.00;96891.31;5015583;28;20061;-53
2022/06/10 02:07:21;;;;;;;4.40;2.55;;;;;;;14.12;100.00;96891.31;5021740;28;20089;-52
2022/06/10 02:09:53;;;;;;;4.70;2.50;;;;;;;14.12;100.00;96891.31;5019480;28;20533;-48
2022/06/10 02:12:30;;;;;;;5.10;2.55;;;;;;;14.07;100.00;96892.75;5019766;28;20065;-51
2022/06/10 02:15:01;;;;;;;4.68;2.45;;;;;;;13.99;100.00;96898.84;5026059;28;20033;-50
2022/06/10 02:17:35;;;;;;;;;;;;;;;13.99;100.00;96898.84;5021323;28;20057;-47
2022/06/10 02:20:05;;;;;;;4.40;1.92;;;;;;;13.87;100.00;96892.13;5024639;28;20366;-51
2022/06/10 02:22:37;;;;;;;4.47;2.58;;;;;;;14.14;100.00;96904.41;5017497;28;20550;-46
2022/06/10 02:25:08;;;;;;;5.75;2.53;;;;;;;13.99;100.00;96901.50;5024524;28;20092;-48
2022/06/10 02:27:37;;;;;;;;;;;;;;;14.10;100.00;96905.69;5025499;28;20464;-49
2022/06/10 02:30:08;;;;;;;7.80;2.08;;;;;;;14.02;100.00;96911.78;5020116;28;20403;-49
2022/06/10 02:32:39;;;;;;;4.65;2.40;;;;;;;13.99;100.00;96910.28;5021464;28;20076;-45
2022/06/10 02:35:09;;;;;;;4.25;2.75;;;;;;;14.14;100.00;96918.50;5020349;28;20087;-48
2022/06/10 02:37:43;;;;;;;3.67;2.40;;;;;;;14.14;100.00;96918.50;5018036;28;20093;-51
2022/06/10 02:40:18;;;;;;;3.78;2.30;;;;;;;14.12;100.00;96930.25;5016364;28;20696;-50
2022/06/10 02:42:54;;;;;;;5.07;3.00;;;;;;;14.12;100.00;96924.97;5019407;28;20077;-50
2022/06/10 02:45:27;;;;;;;4.47;2.70;;;;;;;14.08;100.00;96923.59;5020921;28;20069;-48
2022/06/10 02:48:02;;;;;;;5.55;2.55;;;;;;;13.87;100.00;96919.47;5023629;28;20061;-54
2022/06/10 02:50:30;;;;;;;4.78;2.70;;;;;;;14.02;100.00;96920.56;5015684;28;20061;-51
2022/06/10 02:52:59;;;;;;;6.38;2.55;;;;;;;13.94;100.00;96927.66;5020225;28;20068;-50
2022/06/10 02:55:28;;;;;;;5.00;2.65;;;;;;;14.13;100.00;96927.44;5016599;28;20088;-50
2022/06/10 03:03:46;;;;;;;6.35;2.88;;;;;;;14.09;100.00;96933.22;5022453;28;20060;-55
2022/06/10 03:06:22;;;;;;;2.53;2.30;;;;;;;13.96;100.00;96936.25;5022387;28;20066;-53
2022/06/10 03:08:58;;;;;;;4.07;2.90;;;;;;;13.89;100.00;96938.69;5025452;28;20069;-52
2022/06/10 03:11:34;;;;;;;6.43;3.00;;;;;;;14.08;100.00;96942.19;5025658;28;20123;-52
2022/06/10 03:14:09;;;;;;;6.00;2.78;;;;;;;13.98;100.00;96944.91;5020177;28;20441;-50
2022/06/10 03:16:51;;;;;;;4.57;2.70;;;;;;;14.13;100.00;96950.47;5023575;28;20071;-48
2022/06/10 03:19:31;;;;;;;5.53;3.00;;;;;;;13.94;100.00;96948.88;5025219;28;20085;-51
2022/06/10 03:22:08;;;;;;;6.50;2.90;;;;;;;14.14;100.00;96949.50;5025185;28;20455;-53
2022/06/10 03:24:42;;;;;;;8.07;3.30;;;;;;;13.96;100.00;96953.00;5027056;28;20060;-52
2022/06/10 03:27:14;;;;;;;6.43;3.20;;;;;;;14.06;100.00;96952.91;5018160;28;20077;-54
2022/06/10 03:29:50;;;;;;;5.63;2.90;;;;;;;14.13;100.00;96956.63;5022148;28;20061;-50
2022/06/10 03:32:23;;;;;;;5.32;2.55;;;;;;;14.09;100.00;96957.09;5021884;28;20078;-51
2022/06/10 03:34:58;;;;;;;3.88;2.60;;;;;;;13.83;100.00;96955.22;5020470;28;20547;-50
2022/06/10 03:37:27;;;;;;;4.40;2.90;;;;;;;14.13;100.00;96963.75;5025797;28;20080;-53
2022/06/10 03:39:57;;;;;;;5.80;3.23;;;;;;;14.29;100.00;96963.03;5022530;28;20081;-54
2022/06/10 03:42:27;;;;;;;6.35;2.75;;;;;;;14.33;100.00;96962.56;5023580;28;20103;-51
2022/06/10 03:44:57;;;;;;;9.73;3.17;;;;;;;14.26;100.00;96972.13;5024063;28;20072;-54
2022/06/10 03:47:29;;;;;;;5.25;3.13;;;;;;;14.26;100.00;96972.13;5027330;28;20069;-57
2022/06/10 03:50:08;;;;;;;9.65;3.10;;;;;;;14.26;100.00;96972.13;5017736;28;20069;-50
2022/06/10 03:52:38;;;;;;;4.80;2.90;;;;;;;14.26;100.00;96972.13;5025019;28;20081;-49
2022/06/10 03:55:10;;;;;;;3.17;2.55;;;;;;;14.41;100.00;96973.22;5020870;28;20465;-48
2022/06/10 03:57:38;;;;;;;5.03;2.83;;;;;;;14.51;100.00;96973.16;5023904;28;20065;-53
2022/06/10 04:00:08;;;;;;;5.80;2.92;;;;;;;14.76;100.00;96976.78;5024123;28;20138;-48
2022/06/10 04:02:37;;;;;;;6.00;2.60;;;;;;;14.59;100.00;96981.19;5018878;28;20547;-51
2022/06/10 04:05:08;;;;;;;3.92;2.67;;;;;;;14.59;100.00;96981.19;5025772;28;20538;-55
2022/06/10 04:07:36;;;;;;;4.55;2.72;;;;;;;14.59;100.00;96981.19;5023547;28;20073;-54
2022/06/10 04:10:06;;;;;;;10.70;2.90;;;;;;;14.59;100.00;96981.19;5026453;28;20068;-49
2022/06/10 04:12:34;;;;;;;5.83;2.60;;;;;;;14.59;100.00;96981.19;5020265;28;20061;-52
2022/06/10 04:15:04;;;;;;;7.07;2.85;;;;;;;14.56;100.00;96991.28;5024352;28;20495;-50
2022/06/10 04:17:33;;;;;;;5.18;2.80;;;;;;;14.56;100.00;96991.28;5020758;28;20465;-49
2022/06/10 04:20:01;;;;;;;3.40;2.22;;;;;;;14.32;100.00;96995.41;5022371;28;20065;-50
2022/06/10 04:22:32;;;;;;;4.50;2.47;;;;;;;14.48;100.00;96995.50;5024187;28;20081;-49
2022/06/10 04:25:00;;;;;;;;;;;;;;;14.48;100.00;96995.50;5027260;28;20084;-51
2022/06/10 04:27:28;;;;;;;4.03;2.47;;;;;;;14.48;100.00;96995.50;5022979;28;19960;-47
2022/06/10 04:29:58;;;;;;;3.00;2.30;;;;;;;14.48;100.00;96995.50;5026186;28;20080;-49
2022/06/10 04:32:26;;;;;;;7.63;2.65;;;;;;;14.62;100.00;97003.91;5017621;28;20080;-53
2022/06/10 04:34:55;;;;;;;8.73;2.50;;;;;;;-146.19;100.00;97003.91;5021797;28;20076;-51
2022/06/10 04:37:24;;;;;;;4.53;2.38;;;;;;;15.06;100.00;97004.66;5022544;28;20461;-53
2022/06/10 04:39:53;;;;;;;2.92;2.22;;;;;;;14.83;100.00;97004.38;5021130;28;20077;-48
2022/06/10 04:42:22;;;;;;;4.00;2.38;;;;;;;14.92;100.00;97010.56;5021100;28;20486;-50
2022/06/10 04:44:50;;;;;;;4.97;2.72;;;;;;;15.01;100.00;97006.97;5020245;28;20650;-53
2022/06/10 04:47:19;;;;;;;4.80;2.42;;;;;;;15.00;100.00;97007.09;5021535;28;20069;-52
2022/06/10 04:49:48;;;;;;;3.53;2.20;;;;;;;15.04;100.00;97013.78;5024446;28;20069;-52
2022/06/10 04:52:16;;;;;;;6.43;2.63;;;;;;;15.36;100.00;97005.94;5021793;28;20766;-53
2022/06/10 04:54:45;;;;;;;3.15;2.42;;;;;;;15.16;100.00;97010.66;5025210;28;20069;-51
2022/06/10 04:57:15;;;;;;;4.32;2.30;;;;;;;15.33;100.00;97013.41;5023473;28;20080;-51
2022/06/10 04:59:43;;;;;;;3.45;2.38;;;;;;;15.28;100.00;97015.69;5026738;28;20057;-50
2022/06/10 05:02:12;;;;;;;6.05;2.55;;;;;;;15.34;100.00;97010.56;5024558;28;20065;-50
2022/06/10 05:04:40;;;;;;;3.92;2.05;;;;;;;15.58;100.00;97012.47;5022871;28;20088;-53
2022/06/10 05:07:09;;;;;;;4.32;2.25;;;;;;;15.87;100.00;97009.41;5024017;28;20065;-50
2022/06/10 05:09:37;;;;;;;6.25;2.38;;;;;;;16.31;100.00;97005.59;5018233;28;20065;-48
2022/06/10 05:12:07;;;;;;;3.10;2.20;;;;;;;16.07;100.00;97011.75;5023671;28;20543;-52
2022/06/10 05:14:37;;;;;;;4.17;2.30;;;;;;;16.16;100.00;97010.75;5024352;28;20065;-47
2022/06/10 05:17:05;;;;;;;5.40;2.55;;;;;;;16.66;100.00;97001.75;5022712;28;20525;-55
2022/06/10 05:19:34;;;;;;;6.05;2.17;;;;;;;16.57;100.00;97008.91;5023807;28;20089;-49
2022/06/10 05:22:02;;;;;;;3.25;2.10;;;;;;;16.36;100.00;97005.94;5022248;28;20092;-52
2022/06/10 05:24:31;;;;;;;3.55;2.25;;;;;;;17.33;100.00;97006.72;5022361;28;20065;-48
2022/06/10 05:26:59;;;;;;;3.65;2.05;;;;;;;17.48;100.00;97009.47;5018316;28;20072;-54
2022/06/10 05:29:28;;;;;;;3.50;2.20;;;;;;;17.24;100.00;97013.06;5021532;28;20730;-49
2022/06/10 05:31:58;;;;;;;3.50;1.90;;;;;;;17.66;100.00;97009.25;5021691;28;20075;-50
2022/06/10 05:37:17;;;;;;;4.00;2.08;;;;;;;17.70;100.00;97022.03;5018692;28;20523;-49
2022/06/10 05:39:46;;;;;;;6.15;3.00;;;;;;;19.06;100.00;97013.25;5023320;28;20072;-52
2022/06/10 05:42:14;;;;;;;3.88;2.30;;;;;;;19.12;100.00;97011.72;5023366;28;20524;-47
2022/06/10 05:44:44;;;;;;;5.90;2.60;;;;;;;18.60;100.00;97012.56;5024336;28;20061;-51
2022/06/10 05:47:16;;;;;;;5.32;2.55;;;;;;;19.09;100.00;97017.41;5022195;28;20073;-52
2022/06/10 05:49:55;;;;;;;4.30;2.20;;;;;;;18.23;100.00;97020.38;5024725;28;20068;-48
2022/06/10 05:52:26;;;;;;;4.90;2.42;;;;;;;17.84;100.00;97025.00;5019809;28;20089;-54
2022/06/10 05:54:56;;;;;;;5.93;2.45;;;;;;;17.64;100.00;97029.91;5017710;28;20107;-53
2022/06/10 05:57:25;;;;;;;6.10;2.17;;;;;;;17.43;100.00;97031.34;5018796;28;20089;-48
2022/06/10 05:59:53;;;;;;;4.32;2.55;;;;;;;17.28;100.00;97030.41;5021856;28;20061;-52
2022/06/10 06:02:24;;;;;;;4.45;2.30;;;;;;;17.11;100.00;97040.31;5018925;28;20489;-54
2022/06/10 06:04:53;;;;;;;5.80;2.35;;;;;;;16.87;100.00;97035.03;5024555;28;20611;-47
2022/06/10 06:07:22;;;;;;;4.93;2.38;;;;;;;17.13;100.00;97045.44;5019107;28;20073;-46
2022/06/10 06:09:51;;;;;;;7.38;2.58;;;;;;;17.19;100.00;97042.94;5020695;28;20056;-46
2022/06/10 06:12:20;;;;;;;7.80;2.58;;;;;;;17.38;100.00;97038.19;5019894;28;20377;-49
2022/06/10 06:14:49;;;;;;;4.15;2.40;;;;;;;17.44;100.00;97037.50;5023182;28;20065;-48
2022/06/10 06:17:19;;;;;;;5.70;2.50;;;;;;;17.27;100.00;97042.06;5034163;28;20069;-51
2022/06/10 06:19:49;;;;;;;5.65;2.60;;;;;;;17.06;100.00;97042.63;5021190;28;20073;-48
2022/06/10 06:22:18;;;;;;;4.57;2.60;;;;;;;17.45;100.00;97044.50;5018531;28;21430;-47
2022/06/10 06:24:47;;;;;;;5.03;2.60;;;;;;;17.36;100.00;97042.88;5022312;28;20465;-53
2022/06/10 06:27:16;;;;;;;8.68;2.80;;;;;;;17.79;100.00;97042.38;5018016;28;20065;-53
2022/06/10 06:29:45;;;;;;;3.20;2.45;;;;;;;17.99;100.00;97042.72;5020857;28;20072;-57
2022/06/10 06:32:13;;;;;;;4.82;2.30;;;;;;;18.33;100.00;97041.50;5020364;28;20524;-52
2022/06/10 06:34:42;;;;;;;6.35;2.80;;;;;;;18.65;100.00;97040.41;5019813;28;20118;-47
2022/06/10 06:37:14;;;;;;;4.43;2.45;;;;;;;18.84;100.00;97044.41;5022304;28;20493;-51
2022/06/10 06:39:42;;;;;;;6.25;2.65;;;;;;;18.91;100.00;97042.66;5017045;28;20081;-52
2022/06/10 06:42:12;;;;;;;6.32;3.20;;;;;;;19.35;100.00;97036.50;5020264;28;20065;-51
2022/06/10 06:44:41;;;;;;;4.32;2.65;;;;;;;19.39;100.00;97048.50;5018934;28;20072;-53
2022/06/10 06:47:29;;;;;;;5.45;2.63;;;;;;;19.73;100.00;97036.38;5022627;28;20870;-50
2022/06/10 06:49:58;;;;;;;3.97;2.80;;;;;;;19.84;100.00;97040.41;5024080;28;20061;-52
2022/06/10 06:52:28;;;;;;;5.43;2.70;;;;;;;19.88;100.00;97044.38;5024261;28;20084;-49
2022/06/10 06:54:56;;;;;;;5.97;2.60;;;;;;;19.66;100.00;97046.19;5022496;28;20089;-57
2022/06/10 06:57:26;;;;;;;6.00;3.00;;;;;;;19.91;100.00;97041.31;5022586;28;20101;-53
2022/06/10 07:00:02;;;;;;;6.18;2.80;;;;;;;19.83;100.00;97044.94;5022019;28;20076;-52
2022/06/10 07:02:31;;;;;;;5.25;2.78;;;;;;;19.53;100.00;97051.34;5022072;28;20649;-50
2022/06/10 07:04:59;;;;;;;6.85;3.33;;;;;;;19.03;100.00;97043.06;5024774;28;20069;-53
2022/06/10 07:07:30;;;;;;;6.60;3.20;;;;;;;19.24;100.00;97052.19;5019811;28;20084;-51
2022/06/10 07:09:58;;;;;;;4.55;2.50;;;;;;;19.38;100.00;97054.03;5020252;28;20085;-52
2022/06/10 07:12:27;;;;;;;4.57;3.10;;;;;;;19.25;100.00;97053.84;5021373;28;20072;-49
2022/06/10 07:14:55;;;;;;;6.15;3.30;;;;;;;18.91;100.00;97063.22;5018552;28;20088;-52
2022/06/10 07:17:24;;;;;;;8.40;2.95;;;;;;;19.57;100.00;97066.00;5022149;28;20072;-50
2022/06/10 07:19:54;;;;;;;3.90;2.92;;;;;;;18.92;100.00;97068.38;5018374;28;20064;-54
2022/06/10 07:22:22;;;;;;;;;;;;;;;19.34;100.00;97069.63;5023499;28;20393;-52
2022/06/10 07:24:52;;;;;;;5.70;2.80;;;;;;;19.57;100.00;97071.34;5017737;28;21524;-53
2022/06/10 07:27:20;;;;;;;5.57;3.10;;;;;;;19.48;100.00;97075.97;5022078;28;20061;-52
2022/06/10 07:30:03;;;;;;;4.55;3.38;;;;;;;19.64;100.00;97073.13;5019047;28;20065;-50
2022/06/10 07:32:31;;;;;;;8.98;3.58;;;;;;;19.05;100.00;97067.75;5017423;28;20076;-52
2022/06/10 07:35:00;;;;;;;7.60;3.75;;;;;;;19.52;100.00;97066.56;5017486;28;20074;-48
2022/06/10 07:37:28;;;;;;;7.82;3.67;;;;;;;19.57;100.00;97076.69;5019251;28;20081;-54
2022/06/10 07:39:58;;;;;;;6.05;3.53;;;;;;;19.95;100.00;97073.91;5019010;28;20077;-47
2022/06/10 07:42:25;;;;;;;6.03;3.40;;;;;;;19.96;100.00;97070.19;5022036;28;20547;-53
2022/06/10 07:44:54;;;;;;;6.18;3.50;;;;;;;19.73;100.00;97075.72;5020939;28;20065;-53
2022/06/10 07:47:23;;;;;;;5.72;3.63;;;;;;;19.25;100.00;97070.72;5019297;28;20065;-52
2022/06/10 07:49:51;;;;;;;7.30;3.97;;;;;;;19.60;100.00;97073.66;5021682;28;20069;-53
2022/06/10 07:52:20;;;;;;;7.75;3.90;;;;;;;20.07;100.00;97067.88;5022274;28;20088;-51
2022/06/10 07:54:50;;;;;;;8.90;4.00;;;;;;;19.63;100.00;97074.16;5023773;28;20463;-53
2022/06/10 07:57:20;;;;;;;8.65;4.35;;;;;;;20.29;100.00;97070.56;5021075;28;20069;-56
2022/06/10 07:59:49;;;;;;;5.95;3.90;;;;;;;20.15;100.00;97067.75;5027496;28;20079;-49
2022/06/10 08:02:18;;;;;;;7.70;3.95;;;;;;;20.42;100.00;97073.38;5024461;28;20067;-57
2022/06/10 08:04:46;;;;;;;4.60;3.83;;;;;;;20.06;100.00;97070.72;5025429;28;20076;-51
2022/06/10 08:07:15;;;;;;;6.68;4.10;;;;;;;20.58;100.00;97077.69;5027968;28;20548;-46
2022/06/10 08:09:44;;;;;;;6.25;3.92;;;;;;;20.98;100.00;97065.41;5023118;28;20076;-48
2022/06/10 08:12:12;;;;;;;7.97;4.05;;;;;;;20.77;100.00;97068.97;5022461;28;20149;-49
2022/06/10 08:14:42;;;;;;;5.15;3.85;;;;;;;21.01;100.00;97070.38;5026944;28;20072;-51
2022/06/10 08:17:10;;;;;;;7.75;4.18;;;;;;;20.92;100.00;97068.03;5022596;28;20061;-52
2022/06/10 08:19:39;;;;;;;6.53;4.00;;;;;;;21.34;100.00;97064.47;5025137;28;20088;-54
2022/06/10 08:24:54;;;;;;;5.93;3.70;;;;;;;20.96;100.00;97075.53;5020713;28;20448;-55
2022/06/10 08:27:22;;;;;;;7.43;4.28;;;;;;;21.52;100.00;97067.44;5020717;28;20113;-53
2022/06/10 08:29:53;;;;;;;6.25;4.10;;;;;;;22.35;100.00;97063.81;5020578;28;20568;-54
2022/06/10 08:32:22;;;;;;;6.30;4.20;;;;;;;22.85;100.00;97067.81;5021215;28;20077;-55
2022/06/10 08:34:51;;;;;;;6.40;3.90;;;;;;;22.19;100.00;97063.16;5020953;28;20070;-52
2022/06/10 08:37:19;;;;;;;7.20;3.65;;;;;;;22.45;100.00;97059.69;5018525;28;20077;-51
2022/06/10 08:39:47;;;;;;;5.55;3.22;;;;;;;22.13;100.00;97072.03;5024807;28;20065;-46
2022/06/10 08:42:32;;;;;;;6.03;3.58;;;;;;;22.44;100.00;97070.66;5017216;28;20069;-46
2022/06/10 08:45:10;;;;;;;5.32;3.60;;;;;;;22.94;100.00;97071.13;5023829;28;20452;-55
2022/06/10 08:47:50;;;;;;;6.72;3.42;;;;;;;23.23;100.00;97069.88;5020618;28;20065;-47
2022/06/10 08:50:47;;;;;;;5.00;3.40;;;;;;;22.96;100.00;97074.44;5023730;28;20536;-51
2022/06/10 08:53:35;;;;;;;4.40;2.85;;;;;;;24.00;100.00;97076.28;4998517;28;20068;-47
2022/06/10 08:56:08;;;;;;;6.07;3.20;;;;;;;23.81;100.00;97072.63;5025721;28;20077;-52
2022/06/10 08:58:40;;;;;;;6.18;3.10;;;;;;;24.16;100.00;97075.78;5026330;28;20077;-46
2022/06/10 09:01:14;;;;;;;5.15;3.15;;;;;;;24.74;100.00;97076.66;5021581;28;20077;-48
2022/06/10 09:03:45;;;;;;;6.35;3.58;;;;;;;24.16;100.00;97077.66;5021807;28;20069;-53
2022/06/10 09:06:18;;;;;;;5.28;3.42;;;;;;;24.55;100.00;97075.78;5020223;28;20516;-50
2022/06/10 09:08:50;;;;;;;5.38;3.50;;;;;;;24.09;100.00;97074.16;5022681;28;20069;-48
2022/06/10 09:11:22;;;;;;;5.40;3.28;;;;;;;24.63;99.90;97070.09;5011065;28;20069;-50
2022/06/10 09:13:54;;;;;;;3.92;3.13;;;;;;;24.25;100.00;97072.81;5019451;28;20061;-49
2022/06/10 09:16:29;;;;;;;5.03;3.20;;;;;;;24.75;100.00;97076.47;5025114;28;20081;-51
2022/06/10 09:19:05;;;;;;;7.70;3.33;;;;;;;24.14;100.00;97077.03;5001045;28;20442;-51
2022/06/10 09:21:42;;;;;;;9.25;3.58;;;;;;;23.24;100.00;97086.84;5025758;28;20081;-53
2022/06/10 09:24:15;;;;;;;4.32;3.17;;;;;;;23.87;100.00;97073.63;5021367;28;20134;-50
2022/06/10 09:26:49;;;;;;;4.40;3.53;;;;;;;23.44;100.00;97075.00;5021054;28;20076;-50
2022/06/10 09:29:18;;;;;;;5.43;3.55;;;;;;;23.28;100.00;97074.59;5011533;28;20063;-51
2022/06/10 09:31:54;;;;;;;5.00;3.63;;;;;;;24.19;100.00;97073.69;5016372;28;20072;-47
2022/06/10 09:34:30;;;;;;;6.00;3.38;;;;;;;23.89;100.00;97076.94;5017048;28;20147;-54
2022/06/10 09:37:04;;;;;;;4.53;3.30;;;;;;;23.58;100.00;97073.09;5026830;28;20464;-50
2022/06/10 09:42:39;;;;;;;5.53;3.22;;;;;;;24.43;100.00;97074.81;5017341;28;20076;-53
2022/06/10 09:45:16;;;;;;;6.72;3.40;;;;;;;24.66;100.00;97080.47;5027181;28;20084;-47
2022/06/10 09:47:55;;;;;;;6.22;2.95;;;;;;;24.95;100.00;97081.69;5022802;28;20069;-51
2022/06/10 09:50:28;;;;;;;5.47;3.50;;;;;;;25.24;99.30;97076.69;5029012;28;20444;-53
2022/06/10 09:53:28;;;;;;;4.10;2.90;;;;;;;24.08;100.00;97077.88;5021847;28;20116;-48
2022/06/10 09:56:28;;;;;;;5.50;3.10;;;;;;;24.52;97.38;97074.34;5024959;28;20123;-50
2022/06/10 09:59:14;;;;;;;4.03;2.50;;;;;;;25.96;89.77;97064.28;5007030;28;20065;-51
2022/06/10 10:01:58;;;;;;;6.28;3.00;;;;;;;24.71;88.20;97069.84;5028222;28;20069;-50
2022/06/10 10:04:48;;;;;;;4.57;2.92;;;;;;;25.89;80.77;97068.94;5020649;28;20073;-54
2022/06/10 10:07:22;;;;;;;3.78;2.88;;;;;;;26.28;80.26;97070.28;5015828;28;20080;-50
2022/06/10 10:10:03;;;;;;;3.50;2.67;;;;;;;27.15;65.12;97064.41;5019539;28;20544;-47
2022/06/10 10:12:40;;;;;;;4.68;2.60;;;;;;;27.14;60.21;97053.81;5026535;28;20064;-53
2022/06/10 10:15:17;;;;;;;3.70;3.30;;;;;;;27.12;57.20;97070.28;5019510;28;20069;-51
2022/06/10 10:18:09;;;;;;;4.20;2.88;;;;;;;26.72;73.37;97065.50;5014625;28;20448;-55
2022/06/10 10:20:56;;;;;;;7.60;4.10;;;;;;;24.70;92.32;97070.06;5027562;28;20459;-52
2022/06/10 10:23:30;;;;;;;8.88;3.55;;;;;;;25.63;100.00;97061.94;5020560;28;20065;-48
2022/06/10 10:25:58;;;;;;;4.72;3.35;;;;;;;25.56;95.32;97061.19;5024759;28;20073;-52
2022/06/10 10:28:33;;;;;;;3.75;3.17;;;;;;;25.56;100.00;97062.00;5020204;28;20073;-47
2022/06/10 10:31:09;;;;;;;5.78;3.15;;;;;;;25.47;100.00;97059.84;5020916;28;20076;-48
2022/06/10 10:33:37;;;;;;;4.00;3.30;;;;;;;24.89;100.00;97068.25;5037878;28;20127;-49
2022/06/10 10:36:16;;;;;;;6.35;3.58;;;;;;;24.85;98.13;97068.69;5024947;28;20068;-50
2022/06/10 10:38:46;;;;;;;4.30;3.38;;;;;;;24.85;98.13;97068.69;5016051;28;20472;-52
2022/06/10 10:41:28;;;;;;;4.70;3.60;;;;;;;25.03;94.51;97061.69;5021943;28;20072;-53
2022/06/10 10:44:00;;;;;;;3.65;3.00;;;;;;;25.19;92.66;97065.72;5020784;28;20423;-50
2022/06/10 10:46:32;;;;;;;6.18;3.38;;;;;;;24.59;100.00;97071.59;5026072;28;20085;-51
2022/06/10 10:49:04;;;;;;;5.65;3.35;;;;;;;24.92;100.00;97065.13;5016161;28;20080;-53
2022/06/10 10:51:38;;;;;;;3.88;3.10;;;;;;;24.10;100.00;97068.53;5020534;28;20453;-54
2022/06/10 10:54:25;;;;;;;6.43;3.93;;;;;;;24.44;100.00;97073.78;5018599;28;20064;-54
2022/06/10 10:56:55;;;;;;;5.10;3.60;;;;;;;24.44;100.00;97073.78;5024722;28;20080;-54
2022/06/10 10:59:33;;;;;;;6.57;3.47;;;;;;;23.30;100.00;97067.16;5016017;28;20074;-53
2022/06/10 11:02:37;;;;;;;6.18;3.10;;;;;;;23.28;100.00;97071.91;5026019;28;20076;-49
2022/06/10 11:05:31;;;;;;;7.13;3.15;;;;;;;23.28;100.00;97071.91;5011980;28;20069;-46
2022/06/10 11:08:21;;;;;;;5.03;3.40;;;;;;;23.28;100.00;97071.91;4993299;28;20070;-48
2022/06/10 11:10:53;;;;;;;4.20;3.03;;;;;;;23.10;100.00;97065.31;4992438;28;20066;-51
2022/06/10 11:13:27;;;;;;;5.63;3.33;;;;;;;23.10;100.00;97065.31;4999625;28;20086;-48
2022/06/10 11:15:55;;;;;;;4.75;3.03;;;;;;;22.69;100.00;97058.28;5003344;28;21500;-53
2022/06/10 11:18:24;;;;;;;6.63;3.45;;;;;;;22.69;100.00;97058.28;5015338;28;20066;-55
2022/06/10 11:21:00;;;;;;;6.25;3.05;;;;;;;22.69;100.00;97058.28;5010659;28;20458;-51
2022/06/10 11:23:30;;;;;;;4.65;2.88;;;;;;;22.72;100.00;97060.56;5003763;28;20531;-52
2022/06/10 11:26:07;;;;;;;4.38;2.90;;;;;;;22.72;100.00;97060.56;5013106;28;20065;-49
2022/06/10 11:28:38;;;;;;;6.72;2.78;;;;;;;22.72;100.00;97060.56;5027211;28;20144;-51
2022/06/10 11:31:20;;;;;;;3.83;2.58;;;;;;;22.72;100.00;97060.56;5025795;28;20073;-52
2022/06/10 11:33:52;;;;;;;4.07;2.22;;;;;;;22.72;100.00;72291.72;5027891;28;20291;-51
2022/06/10 11:36:27;;;;;;;2.65;2.20;;;;;;;22.72;100.00;97060.56;5025912;28;20068;-50
2022/06/10 11:39:15;;;;;;;2.30;1.80;;;;;;;23.71;79.73;97044.47;5026075;28;20138;-51
2022/06/10 11:41:57;;;;;;;3.65;2.17;;;;;;;23.98;91.35;97045.19;5026962;28;20069;-49
2022/06/10 11:44:27;;;;;;;3.45;2.20;;;;;;;23.98;91.35;97045.19;5026064;28;20542;-55
2022/06/10 11:47:01;;;;;;;6.75;2.60;;;;;;;23.98;91.35;97045.19;5024041;28;20080;-53
2022/06/10 11:49:34;;;;;;;2.97;2.40;;;;;;;24.01;84.95;97037.50;5024298;28;20077;-53
2022/06/10 11:52:09;;;;;;;4.40;2.47;;;;;;;24.31;77.87;97026.13;5022811;28;20083;-53
2022/06/10 11:54:45;;;;;;;3.28;2.30;;;;;;;23.97;70.18;97024.69;5023257;28;20065;-55
2022/06/10 12:00:10;;;;;;;3.60;2.20;;;;;;;24.47;71.39;97030.22;5023383;28;20065;-49
2022/06/10 12:02:43;;;;;;;4.68;2.30;;;;;;;24.47;71.39;97030.22;5027482;28;20069;-52
2022/06/10 12:05:24;;;;;;;2.78;2.30;;;;;;;24.47;71.39;97030.22;5024144;28;20716;-54
2022/06/10 12:08:00;;;;;;;3.30;2.33;;;;;;;24.46;63.07;97015.88;5025221;28;20069;-47
2022/06/10 12:10:38;;;;;;;3.63;2.33;;;;;;;25.24;58.08;97012.72;5024503;28;20080;-51
2022/06/10 12:13:10;;;;;;;3.05;2.15;;;;;;;25.85;69.30;97007.47;5022436;28;20084;-53